createdAt,value
2022-08-20T00:00:42.638Z,4.05
2022-08-20T00:03:15.185Z,6.90
2022-08-20T00:05:49.592Z,6.93
2022-08-20T00:08:17.923Z,5.30
2022-08-20T00:10:46.246Z,6.97
2022-08-20T00:13:20.261Z,6.15
2022-08-20T00:15:48.106Z,4.63
2022-08-20T00:18:15.414Z,5.97
2022-08-20T00:20:47.030Z,6.32
2022-08-20T00:23:14.763Z,5.45
2022-08-20T00:25:43.485Z,8.17
2022-08-20T00:30:39.828Z,5.70
2022-08-20T00:33:10.537Z,6.80
2022-08-20T00:35:43.109Z,4.93
2022-08-20T00:38:10.426Z,5.97
2022-08-20T00:40:56.595Z,5.22
2022-08-20T00:43:30.965Z,6.10
2022-08-20T00:46:00.582Z,5.13
2022-08-20T00:48:32.138Z,5.05
2022-08-20T00:51:07.646Z,6.15
2022-08-20T00:53:36.083Z,6.13
2022-08-20T00:56:05.348Z,7.95
2022-08-20T00:58:33.205Z,6.32
2022-08-20T01:01:00.503Z,7.97
2022-08-20T01:03:27.571Z,11.93
2022-08-20T01:05:54.515Z,8.82
2022-08-20T01:08:24.804Z,5.88
2022-08-20T01:10:54.074Z,8.63
2022-08-20T01:13:23.821Z,8.75
2022-08-20T01:15:54.895Z,7.63
2022-08-20T01:18:25.226Z,5.95
2022-08-20T01:20:56.843Z,5.88
2022-08-20T01:23:32.434Z,5.07
2022-08-20T01:26:09.090Z,5.43
2022-08-20T01:28:50.738Z,6.05
2022-08-20T01:31:21.525Z,6.72
2022-08-20T01:33:51.023Z,6.65
2022-08-20T01:36:23.467Z,9.15
2022-08-20T01:38:54.036Z,7.28
2022-08-20T01:42:13.172Z,5.38
2022-08-20T01:44:43.082Z,6.65
2022-08-20T01:47:13.018Z,6.00
2022-08-20T01:49:45.515Z,5.70
2022-08-20T01:52:22.956Z,6.78
2022-08-20T01:54:49.917Z,6.88
2022-08-20T01:57:19.210Z,5.78
2022-08-20T01:59:48.004Z,6.68
2022-08-20T02:02:15.014Z,8.07
2022-08-20T02:04:42.629Z,5.40
2022-08-20T02:07:15.975Z,5.72
2022-08-20T02:09:43.888Z,6.10
2022-08-20T02:12:14.463Z,7.93
2022-08-20T02:14:44.125Z,8.10
2022-08-20T02:17:12.585Z,5.90
2022-08-20T02:19:44.472Z,6.68
2022-08-20T02:22:23.675Z,7.53
2022-08-20T02:24:51.616Z,7.30
2022-08-20T02:27:19.218Z,5.85
2022-08-20T02:29:46.932Z,6.47
2022-08-20T02:32:24.137Z,7.15
2022-08-20T02:35:00.026Z,8.60
2022-08-20T02:37:28.382Z,7.75
2022-08-20T02:39:55.360Z,8.57
2022-08-20T02:42:22.402Z,6.82
2022-08-20T02:44:49.360Z,8.05
2022-08-20T02:47:17.342Z,11.23
2022-08-20T02:49:44.221Z,10.27
2022-08-20T02:52:11.266Z,10.73
2022-08-20T02:54:38.238Z,7.50
2022-08-20T02:57:05.451Z,9.30
2022-08-20T02:59:32.435Z,7.15
2022-08-20T03:02:00.516Z,12.30
2022-08-20T03:04:31.200Z,7.07
2022-08-20T03:06:59.397Z,9.23
2022-08-20T03:09:26.657Z,11.57
2022-08-20T03:11:54.545Z,8.00
2022-08-20T03:14:21.679Z,8.13
2022-08-20T03:16:48.738Z,8.43
2022-08-20T03:19:15.910Z,6.95
2022-08-20T03:21:43.005Z,7.47
2022-08-20T03:24:10.051Z,6.68
2022-08-20T03:26:37.051Z,6.80
2022-08-20T03:29:04.073Z,8.90
2022-08-20T03:31:31.226Z,7.10
2022-08-20T03:33:58.155Z,7.20
2022-08-20T03:36:28.137Z,8.48
2022-08-20T03:39:01.331Z,9.15
2022-08-20T03:41:29.270Z,10.70
2022-08-20T03:43:56.404Z,10.40
2022-08-20T03:46:24.125Z,7.38
2022-08-20T03:49:00.366Z,7.30
2022-08-20T03:51:56.996Z,9.75
2022-08-20T03:54:19.248Z,7.05
2022-08-20T03:56:46.213Z,11.23
2022-08-20T03:59:13.168Z,11.15
2022-08-20T04:01:45.803Z,11.05
2022-08-20T04:04:14.358Z,13.43
2022-08-20T04:06:42.554Z,9.50
2022-08-20T04:09:11.954Z,9.98
2022-08-20T04:11:40.428Z,11.25
2022-08-20T04:14:07.746Z,10.13
2022-08-20T04:16:37.835Z,11.13
2022-08-20T04:19:05.307Z,8.50
2022-08-20T04:21:33.643Z,9.50
2022-08-20T04:24:05.585Z,11.75
2022-08-20T04:26:35.399Z,12.85
2022-08-20T04:29:02.409Z,14.15
2022-08-20T04:31:35.333Z,11.80
2022-08-20T04:34:03.945Z,10.85
2022-08-20T04:36:31.256Z,12.20
2022-08-20T04:38:58.271Z,12.02
2022-08-20T04:41:25.282Z,10.35
2022-08-20T04:43:54.544Z,21.55
2022-08-20T04:46:24.044Z,18.70
2022-08-20T04:48:51.281Z,9.95
2022-08-20T04:51:18.899Z,15.60
2022-08-20T04:53:52.251Z,12.45
2022-08-20T04:56:24.152Z,10.90
2022-08-20T04:58:52.990Z,12.38
2022-08-20T05:01:19.996Z,11.40
2022-08-20T05:03:49.930Z,12.40
2022-08-20T05:06:18.310Z,11.82
2022-08-20T05:08:45.708Z,11.82
2022-08-20T05:11:34.881Z,14.10
2022-08-20T05:14:02.019Z,10.10
2022-08-20T05:16:28.961Z,10.25
2022-08-20T05:18:55.901Z,9.55
2022-08-20T05:21:23.161Z,11.13
2022-08-20T05:23:50.117Z,8.68
2022-08-20T05:26:20.495Z,12.15
2022-08-20T05:28:57.854Z,15.52
2022-08-20T05:31:31.399Z,9.75
2022-08-20T05:34:10.421Z,11.27
2022-08-20T05:36:44.876Z,14.00
2022-08-20T05:39:12.926Z,9.60
2022-08-20T05:41:40.795Z,11.57
2022-08-20T05:44:11.001Z,10.27
2022-08-20T05:46:41.301Z,9.55
2022-08-20T05:49:15.719Z,7.80
2022-08-20T05:51:43.436Z,9.75
2022-08-20T05:54:10.472Z,7.15
2022-08-20T05:56:37.926Z,10.52
2022-08-20T05:59:08.135Z,17.95
2022-08-20T06:01:37.983Z,7.28
2022-08-20T06:04:24.102Z,7.18
2022-08-20T06:07:02.665Z,13.93
2022-08-20T06:12:02.169Z,11.90
2022-08-20T06:14:29.421Z,9.50
2022-08-20T06:17:02.764Z,8.05
2022-08-20T06:19:32.298Z,16.90
2022-08-20T06:22:00.402Z,10.38
2022-08-20T06:24:27.427Z,9.40
2022-08-20T06:26:59.679Z,10.63
2022-08-20T06:29:28.333Z,9.35
2022-08-20T06:34:23.644Z,10.52
2022-08-20T06:36:50.635Z,9.55
2022-08-20T06:39:17.631Z,10.30
2022-08-20T06:41:45.230Z,10.25
2022-08-20T06:44:12.194Z,8.77
2022-08-20T06:46:39.203Z,8.40
2022-08-20T06:49:07.585Z,9.85
2022-08-20T06:51:35.350Z,10.05
2022-08-20T06:54:02.263Z,7.90
2022-08-20T06:56:29.228Z,10.52
2022-08-20T06:58:56.116Z,12.20
2022-08-20T07:01:23.279Z,7.82
2022-08-20T07:03:55.379Z,8.20
2022-08-20T07:06:25.994Z,10.13
2022-08-20T07:08:56.045Z,9.27
2022-08-20T07:11:27.751Z,9.98
2022-08-20T07:13:56.937Z,9.60
2022-08-20T07:16:24.411Z,10.18
2022-08-20T07:18:51.527Z,8.80
2022-08-20T07:21:18.511Z,11.48
2022-08-20T07:23:45.559Z,8.50
2022-08-20T07:26:13.414Z,8.30
2022-08-20T07:28:40.796Z,10.68
2022-08-20T07:31:26.987Z,8.32
2022-08-20T07:33:54.275Z,11.70
2022-08-20T07:36:21.407Z,8.10
2022-08-20T07:38:51.129Z,10.52
2022-08-20T07:41:19.469Z,10.32
2022-08-20T07:43:47.381Z,8.15
2022-08-20T07:46:17.950Z,8.00
2022-08-20T07:48:50.574Z,6.70
2022-08-20T07:51:20.177Z,9.57
2022-08-20T07:53:48.533Z,8.30
2022-08-20T07:56:19.722Z,7.47
2022-08-20T07:58:52.605Z,10.75
2022-08-20T08:01:22.599Z,7.97
2022-08-20T08:03:50.715Z,8.70
2022-08-20T08:06:29.374Z,8.00
2022-08-20T08:09:13.375Z,9.70
2022-08-20T08:11:49.193Z,7.80
2022-08-20T08:14:23.696Z,6.10
2022-08-20T08:16:53.086Z,10.98
2022-08-20T08:19:20.444Z,8.48
2022-08-20T08:21:47.627Z,9.90
2022-08-20T08:24:20.312Z,8.95
2022-08-20T08:26:50.375Z,7.90
2022-08-20T08:29:17.807Z,7.05
2022-08-20T08:31:45.230Z,9.93
2022-08-20T08:34:13.260Z,10.95
2022-08-20T08:36:40.464Z,11.00
2022-08-20T08:39:07.497Z,7.55
2022-08-20T08:41:40.641Z,6.55
2022-08-20T08:44:12.991Z,13.05
2022-08-20T08:46:43.513Z,10.15
2022-08-20T08:49:14.619Z,9.57
2022-08-20T08:51:57.517Z,5.82
2022-08-20T08:54:29.444Z,7.22
2022-08-20T08:56:56.719Z,8.10
2022-08-20T08:59:24.010Z,5.88
2022-08-20T09:01:57.122Z,8.23
2022-08-20T09:04:33.404Z,6.60
2022-08-20T09:07:03.077Z,7.55
2022-08-20T09:09:37.095Z,7.75
2022-08-20T09:12:12.830Z,7.78
2022-08-20T09:14:40.131Z,7.78
2022-08-20T09:17:07.919Z,7.20
2022-08-20T09:19:35.286Z,7.33
2022-08-20T09:22:13.338Z,9.43
2022-08-20T09:27:07.945Z,8.30
2022-08-20T09:29:35.626Z,11.27
2022-08-20T09:32:12.021Z,11.55
2022-08-20T09:34:42.734Z,8.70
2022-08-20T09:37:10.575Z,6.68
2022-08-20T09:39:37.610Z,9.38
2022-08-20T09:42:10.033Z,7.70
2022-08-20T09:44:37.549Z,6.32
2022-08-20T09:47:04.758Z,5.50
2022-08-20T09:49:31.904Z,5.72
2022-08-20T09:52:01.512Z,7.38
2022-08-20T09:54:30.361Z,6.93
2022-08-20T09:56:58.839Z,6.97
2022-08-20T09:59:27.020Z,5.85
2022-08-20T10:04:21.045Z,5.45
2022-08-20T10:06:47.978Z,5.28
2022-08-20T10:09:15.168Z,6.88
2022-08-20T10:11:42.177Z,5.85
2022-08-20T10:14:11.625Z,9.63
2022-08-20T10:16:38.553Z,6.55
2022-08-20T10:19:06.054Z,5.57
2022-08-20T10:21:38.082Z,5.72
2022-08-20T10:24:05.878Z,5.55
2022-08-20T10:26:32.884Z,7.35
2022-08-20T10:28:59.886Z,8.85
2022-08-20T10:31:27.083Z,7.60
2022-08-20T10:33:54.081Z,9.67
2022-08-20T10:36:21.033Z,6.90
2022-08-20T10:38:49.299Z,5.82
2022-08-20T10:41:16.319Z,7.65
2022-08-20T10:43:43.342Z,8.05
2022-08-20T10:46:10.294Z,6.25
2022-08-20T10:48:37.553Z,6.03
2022-08-20T10:51:04.846Z,9.10
2022-08-20T10:53:32.047Z,8.07
2022-08-20T10:55:59.451Z,9.67
2022-08-20T10:58:27.331Z,7.18
2022-08-20T11:01:05.118Z,5.25
2022-08-20T11:03:32.077Z,6.03
2022-08-20T11:05:59.079Z,6.90
2022-08-20T11:08:34.460Z,9.27
2022-08-20T11:11:04.463Z,5.38
2022-08-20T11:13:33.401Z,7.50
2022-08-20T11:16:01.321Z,6.05
2022-08-20T11:18:28.520Z,7.63
2022-08-20T11:20:56.311Z,5.87
2022-08-20T11:23:23.244Z,6.68
2022-08-20T11:25:50.719Z,7.78
2022-08-20T11:28:31.426Z,7.65
2022-08-20T11:30:59.449Z,7.38
2022-08-20T11:33:26.392Z,6.55
2022-08-20T11:35:53.381Z,10.95
2022-08-20T11:38:20.370Z,7.53
2022-08-20T11:40:47.929Z,7.07
2022-08-20T11:43:16.957Z,6.30
2022-08-20T11:45:52.919Z,7.03
2022-08-20T11:48:20.131Z,6.72
2022-08-20T11:50:48.322Z,5.67
2022-08-20T11:55:42.640Z,7.53
2022-08-20T11:58:10.797Z,6.95
2022-08-20T12:03:09.585Z,13.95
2022-08-20T12:05:42.996Z,7.20
2022-08-20T12:08:27.290Z,7.47
2022-08-20T12:11:01.553Z,6.15
2022-08-20T12:13:48.424Z,7.60
2022-08-20T12:16:19.964Z,6.68
2022-08-20T12:18:47.920Z,8.57
2022-08-20T12:21:15.237Z,7.22
2022-08-20T12:23:42.387Z,5.83
2022-08-20T12:26:09.432Z,6.00
2022-08-20T12:28:36.951Z,6.15
2022-08-20T12:31:03.982Z,8.30
2022-08-20T12:33:31.251Z,10.20
2022-08-20T12:35:58.317Z,11.83
2022-08-20T12:38:25.457Z,9.98
2022-08-20T12:40:52.412Z,11.45
2022-08-20T12:43:24.237Z,12.18
2022-08-20T12:45:52.157Z,11.43
2022-08-20T12:48:21.876Z,6.68
2022-08-20T12:50:50.316Z,10.00
2022-08-20T12:53:17.629Z,16.73
2022-08-20T12:55:45.073Z,12.02
2022-08-20T12:58:12.108Z,10.75
2022-08-20T13:00:47.250Z,13.45
2022-08-20T13:05:45.487Z,13.07
2022-08-20T13:08:13.047Z,11.02
2022-08-20T13:10:44.584Z,13.90
2022-08-20T13:13:13.393Z,13.40
2022-08-20T13:15:40.935Z,15.88
2022-08-20T13:18:08.495Z,13.73
2022-08-20T13:20:37.105Z,17.03
2022-08-20T13:23:05.652Z,17.23
2022-08-20T13:28:02.435Z,12.40
2022-08-20T13:30:29.591Z,25.92
2022-08-20T13:32:56.815Z,17.73
2022-08-20T13:35:23.997Z,11.57
2022-08-20T13:37:51.191Z,11.52
2022-08-20T13:40:18.766Z,9.55
2022-08-20T13:42:45.932Z,13.63
2022-08-20T13:45:13.407Z,9.35
2022-08-20T13:47:42.285Z,14.85
2022-08-20T13:50:16.379Z,12.07
2022-08-20T13:52:44.046Z,11.75
2022-08-20T13:55:14.798Z,13.25
2022-08-20T13:57:42.392Z,17.02
2022-08-20T14:00:13.475Z,15.88
2022-08-20T14:02:42.015Z,15.07
2022-08-20T14:05:09.883Z,14.63
2022-08-20T14:07:38.279Z,15.27
2022-08-20T14:10:13.933Z,15.77
2022-08-20T14:12:41.231Z,17.10
2022-08-20T14:15:11.895Z,19.65
2022-08-20T14:17:42.550Z,22.05
2022-08-20T14:20:13.150Z,19.40
2022-08-20T14:22:41.553Z,17.85
2022-08-20T14:25:11.787Z,18.30
2022-08-20T14:27:39.458Z,17.98
2022-08-20T14:30:09.527Z,17.98
2022-08-20T14:32:36.770Z,18.63
2022-08-20T14:35:04.447Z,19.75
2022-08-20T14:37:38.289Z,18.75
2022-08-20T14:40:09.396Z,18.88
2022-08-20T14:42:36.864Z,23.67
2022-08-20T14:45:06.637Z,22.80
2022-08-20T14:47:36.664Z,19.95
2022-08-20T14:50:08.851Z,21.27
2022-08-20T14:52:36.910Z,18.70
2022-08-20T14:55:10.473Z,20.65
2022-08-20T14:57:38.693Z,16.33
2022-08-20T15:00:10.095Z,22.15
2022-08-20T15:02:37.821Z,12.82
2022-08-20T15:05:07.179Z,12.73
2022-08-20T15:07:37.199Z,10.10
2022-08-20T15:10:10.130Z,15.90
2022-08-20T15:12:37.138Z,19.35
2022-08-20T15:15:15.373Z,19.58
2022-08-20T15:17:58.095Z,20.08
2022-08-20T15:20:28.258Z,11.32
2022-08-20T15:22:55.669Z,9.95
2022-08-20T15:25:25.521Z,10.68
2022-08-20T15:28:00.714Z,9.38
2022-08-20T15:30:31.051Z,9.90
2022-08-20T15:32:58.261Z,11.60
2022-08-20T15:35:27.401Z,9.60
2022-08-20T15:37:57.571Z,11.30
2022-08-20T15:40:28.432Z,16.95
2022-08-20T15:42:57.843Z,13.20
2022-08-20T15:45:25.791Z,12.77
2022-08-20T15:48:15.484Z,12.00
2022-08-20T15:50:48.218Z,11.15
2022-08-20T15:53:27.953Z,10.18
2022-08-20T15:56:21.851Z,11.20
2022-08-20T15:59:04.032Z,14.05
2022-08-20T16:01:44.318Z,11.48
2022-08-20T16:04:26.722Z,13.55
2022-08-20T16:07:00.645Z,14.98
2022-08-20T16:09:45.891Z,13.68
2022-08-20T16:12:19.854Z,12.48
2022-08-20T16:14:48.243Z,12.77
2022-08-20T16:17:21.965Z,12.20
2022-08-20T16:20:02.352Z,11.80
2022-08-20T16:22:31.682Z,15.20
2022-08-20T16:24:58.802Z,15.43
2022-08-20T16:27:31.860Z,11.38
2022-08-20T16:30:34.836Z,12.70
2022-08-20T16:33:31.578Z,17.80
2022-08-20T16:36:15.044Z,15.90
2022-08-20T16:38:48.405Z,12.77
2022-08-20T16:41:21.745Z,15.30
2022-08-20T16:43:56.375Z,16.73
2022-08-20T16:46:34.026Z,14.82
2022-08-20T16:49:11.450Z,13.93
2022-08-20T16:51:43.672Z,13.25
2022-08-20T16:54:12.891Z,13.68
2022-08-20T16:56:56.929Z,11.85
2022-08-20T16:59:27.086Z,12.30
2022-08-20T17:02:10.909Z,13.68
2022-08-20T17:04:59.333Z,14.48
2022-08-20T17:07:42.553Z,14.93
2022-08-20T17:10:25.272Z,11.52
2022-08-20T17:13:01.024Z,13.52
2022-08-20T17:15:31.318Z,19.55
2022-08-20T17:17:58.553Z,14.98
2022-08-20T17:20:29.024Z,12.93
2022-08-20T17:23:11.176Z,14.63
2022-08-20T17:25:38.646Z,16.10
2022-08-20T17:28:20.700Z,16.02
2022-08-20T17:30:48.181Z,15.30
2022-08-20T17:33:27.090Z,12.98
2022-08-20T17:36:04.968Z,17.42
2022-08-20T17:38:40.080Z,16.40
2022-08-20T17:41:17.592Z,12.23
2022-08-20T17:43:45.093Z,11.93
2022-08-20T17:46:19.288Z,10.55
2022-08-20T17:48:48.289Z,12.65
2022-08-20T17:51:21.625Z,10.75
2022-08-20T17:53:57.065Z,12.52
2022-08-20T17:56:32.694Z,10.35
2022-08-20T17:59:07.454Z,10.65
2022-08-20T18:01:37.796Z,14.07
2022-08-20T18:04:05.012Z,13.63
2022-08-20T18:06:58.174Z,13.20
2022-08-20T18:09:38.555Z,9.98
2022-08-20T18:12:34.130Z,11.80
2022-08-20T18:15:24.461Z,7.95
2022-08-20T18:18:00.796Z,8.88
2022-08-20T18:20:49.569Z,6.90
2022-08-20T18:25:53.294Z,9.43
2022-08-20T18:28:35.177Z,7.63
2022-08-20T18:31:09.137Z,7.90
2022-08-20T18:33:37.998Z,8.88
2022-08-20T18:36:19.703Z,6.70
2022-08-20T18:39:23.705Z,10.82
2022-08-20T18:42:05.682Z,7.93
2022-08-20T18:44:39.504Z,7.88
2022-08-20T18:47:19.807Z,8.85
2022-08-20T18:49:47.472Z,7.63
2022-08-20T18:52:27.640Z,9.15
2022-08-20T18:54:57.532Z,8.20
2022-08-20T18:57:27.283Z,6.72
2022-08-20T19:00:13.365Z,7.78
2022-08-20T19:02:57.860Z,5.45
2022-08-20T19:05:40.506Z,8.95
2022-08-20T19:08:08.103Z,3.72
2022-08-20T19:10:37.954Z,7.53
2022-08-20T19:13:33.456Z,5.57
2022-08-20T19:16:08.990Z,5.82
2022-08-20T19:18:53.261Z,4.28
2022-08-20T19:21:26.133Z,6.50
2022-08-20T19:23:58.105Z,6.72
2022-08-20T19:26:29.285Z,8.65
2022-08-20T19:29:02.094Z,6.53
2022-08-20T19:31:32.865Z,7.50
2022-08-20T19:34:19.993Z,5.28
2022-08-20T19:37:35.519Z,9.13
2022-08-20T19:39:58.614Z,9.98
2022-08-20T19:45:06.214Z,4.68
2022-08-20T19:47:37.807Z,5.75
2022-08-20T19:50:23.951Z,6.97
2022-08-20T19:53:06.912Z,8.68
2022-08-20T19:55:37.281Z,11.85
2022-08-20T19:58:18.809Z,9.85
2022-08-20T20:00:55.498Z,5.80
2022-08-20T20:03:28.659Z,6.03
2022-08-20T20:06:15.168Z,8.25
2022-08-20T20:08:55.769Z,8.25
2022-08-20T20:11:30.539Z,7.35
2022-08-20T20:14:04.349Z,8.20
2022-08-20T20:16:32.583Z,5.43
2022-08-20T20:19:24.692Z,7.63
2022-08-20T20:21:49.852Z,5.50
2022-08-20T20:24:29.737Z,5.18
2022-08-20T20:26:59.457Z,14.13
2022-08-20T20:29:33.674Z,11.02
2022-08-20T20:32:11.971Z,7.90
2022-08-20T20:34:55.486Z,5.28
2022-08-20T20:37:50.906Z,4.88
2022-08-20T20:40:26.332Z,7.75
2022-08-20T20:43:22.139Z,8.45
2022-08-20T20:45:59.399Z,5.88
2022-08-20T20:48:33.810Z,5.43
2022-08-20T20:51:12.240Z,8.65
2022-08-20T20:53:49.561Z,6.03
2022-08-20T20:56:32.201Z,9.63
2022-08-20T20:59:03.983Z,7.00
2022-08-20T21:01:48.658Z,7.97
2022-08-20T21:04:22.641Z,11.85
2022-08-20T21:06:52.302Z,8.73
2022-08-20T21:09:20.491Z,9.07
2022-08-20T21:11:47.942Z,10.30
2022-08-20T21:14:16.254Z,12.38
2022-08-20T21:16:44.145Z,9.90
2022-08-20T21:19:12.272Z,9.43
2022-08-20T21:21:40.045Z,10.10
2022-08-20T21:24:07.371Z,10.75
2022-08-20T21:26:34.993Z,8.15
2022-08-20T21:29:02.130Z,13.65
2022-08-20T21:31:36.247Z,14.93
2022-08-20T21:34:03.448Z,14.30
2022-08-20T21:36:30.476Z,13.00
2022-08-20T21:38:57.442Z,11.50
2022-08-20T21:41:29.559Z,11.27
2022-08-20T21:43:58.974Z,16.30
2022-08-20T21:46:28.896Z,10.05
2022-08-20T21:48:56.647Z,12.48
2022-08-20T21:51:23.803Z,11.98
2022-08-20T21:53:50.720Z,9.05
2022-08-20T21:56:18.392Z,9.75
2022-08-20T21:58:47.346Z,12.63
2022-08-20T22:03:43.030Z,8.00
2022-08-20T22:06:12.503Z,9.30
2022-08-20T22:08:39.825Z,10.20
2022-08-20T22:11:09.038Z,9.25
2022-08-20T22:13:36.557Z,9.88
2022-08-20T22:16:07.558Z,8.55
2022-08-20T22:18:35.076Z,9.40
2022-08-20T22:21:03.304Z,9.57
2022-08-20T22:23:30.365Z,9.63
2022-08-20T22:25:57.322Z,9.63
2022-08-20T22:28:24.455Z,10.98
2022-08-20T22:30:51.470Z,11.02
2022-08-20T22:33:23.390Z,10.73
2022-08-20T22:35:54.729Z,15.73
2022-08-20T22:38:22.995Z,10.45
2022-08-20T22:40:50.078Z,11.48
2022-08-20T22:43:17.086Z,12.43
2022-08-20T22:45:47.389Z,11.23
2022-08-20T22:48:17.013Z,14.88
2022-08-20T22:50:45.167Z,13.55
2022-08-20T22:53:13.901Z,13.23
2022-08-20T22:55:40.859Z,11.43
2022-08-20T22:58:08.648Z,11.55
2022-08-20T23:00:38.762Z,12.07
2022-08-20T23:03:07.229Z,11.57
2022-08-20T23:05:37.440Z,17.23
2022-08-20T23:08:06.949Z,12.95
2022-08-20T23:10:36.164Z,11.35
2022-08-20T23:13:03.170Z,14.07
2022-08-20T23:15:33.050Z,15.30
2022-08-20T23:18:08.104Z,14.05
2022-08-20T23:20:35.758Z,18.65
2022-08-20T23:23:02.995Z,15.93
2022-08-20T23:25:30.230Z,17.45
2022-08-20T23:28:04.197Z,15.32
2022-08-20T23:30:31.466Z,13.35
2022-08-20T23:33:01.555Z,12.52
2022-08-20T23:35:32.906Z,16.50
2022-08-20T23:38:00.677Z,28.13
2022-08-20T23:40:29.386Z,17.65
2022-08-20T23:42:57.669Z,12.63
2022-08-20T23:45:25.839Z,17.65
2022-08-20T23:47:53.286Z,14.63
2022-08-20T23:50:24.747Z,18.23
2022-08-20T23:52:52.616Z,19.08
2022-08-20T23:55:20.462Z,23.70
2022-08-20T23:57:47.416Z,13.88
